sensor_id;sensor_type;location;lat;lon;timestamp;temperature;humidity
13806;DHT22;6974;53.606;9.872;2024-01-10T00:01:43;-1.40;99.90
13806;DHT22;6974;53.606;9.872;2024-01-10T00:04:09;-1.30;99.90
13806;DHT22;6974;53.606;9.872;2024-01-10T00:06:36;-1.20;99.90
13806;DHT22;6974;53.606;9.872;2024-01-10T00:09:03;-1.30;99.90
13806;DHT22;6974;53.606;9.872;2024-01-10T00:11:31;-1.30;99.90
13806;DHT22;6974;53.606;9.872;2024-01-10T00:13:58;-1.40;99.90
13806;DHT22;6974;53.606;9.872;2024-01-10T00:16:25;-1.40;99.90
13806;DHT22;6974;53.606;9.872;2024-01-10T00:18:52;-1.50;99.90
13806;DHT22;6974;53.606;9.872;2024-01-10T00:21:19;-1.50;99.90
13806;DHT22;6974;53.606;9.872;2024-01-10T00:23:46;-1.50;99.90
13806;DHT22;6974;53.606;9.872;2024-01-10T00:26:12;-1.50;99.90
13806;DHT22;6974;53.606;9.872;2024-01-10T00:28:41;-1.50;99.90
13806;DHT22;6974;53.606;9.872;2024-01-10T00:31:07;-1.50;99.90
13806;DHT22;6974;53.606;9.872;2024-01-10T00:33:34;-1.50;99.90
13806;DHT22;6974;53.606;9.872;2024-01-10T00:36:01;-1.50;99.90
13806;DHT22;6974;53.606;9.872;2024-01-10T00:38:28;-1.50;99.90
13806;DHT22;6974;53.606;9.872;2024-01-10T00:40:55;-1.50;99.90
13806;DHT22;6974;53.606;9.872;2024-01-10T00:43:22;-1.60;99.90
13806;DHT22;6974;53.606;9.872;2024-01-10T00:45:50;-1.60;99.90
13806;DHT22;6974;53.606;9.872;2024-01-10T00:48:17;-1.60;99.90
13806;DHT22;6974;53.606;9.872;2024-01-10T00:50:44;-1.60;99.90
13806;DHT22;6974;53.606;9.872;2024-01-10T00:53:11;-1.50;99.90
13806;DHT22;6974;53.606;9.872;2024-01-10T00:55:38;-1.50;99.90
13806;DHT22;6974;53.606;9.872;2024-01-10T00:58:05;-1.40;99.90
13806;DHT22;6974;53.606;9.872;2024-01-10T01:00:32;-1.50;99.90
13806;DHT22;6974;53.606;9.872;2024-01-10T01:03:01;-1.40;99.90
13806;DHT22;6974;53.606;9.872;2024-01-10T01:05:27;-1.50;99.90
13806;DHT22;6974;53.606;9.872;2024-01-10T01:07:54;-1.40;99.90
13806;DHT22;6974;53.606;9.872;2024-01-10T01:10:21;-1.40;99.90
13806;DHT22;6974;53.606;9.872;2024-01-10T01:12:48;-1.40;99.90
13806;DHT22;6974;53.606;9.872;2024-01-10T01:15:15;-1.40;99.90
13806;DHT22;6974;53.606;9.872;2024-01-10T01:17:42;-1.40;99.90
13806;DHT22;6974;53.606;9.872;2024-01-10T01:20:10;-1.40;99.90
13806;DHT22;6974;53.606;9.872;2024-01-10T01:22:37;-1.30;99.90
13806;DHT22;6974;53.606;9.872;2024-01-10T01:25:04;-1.40;99.90
13806;DHT22;6974;53.606;9.872;2024-01-10T01:27:31;-1.40;99.90
13806;DHT22;6974;53.606;9.872;2024-01-10T01:29:58;-1.40;99.90
13806;DHT22;6974;53.606;9.872;2024-01-10T01:32:25;-1.40;99.90
13806;DHT22;6974;53.606;9.872;2024-01-10T01:34:52;-1.40;99.90
13806;DHT22;6974;53.606;9.872;2024-01-10T01:37:20;-1.40;99.90
13806;DHT22;6974;53.606;9.872;2024-01-10T01:39:46;-1.30;99.90
13806;DHT22;6974;53.606;9.872;2024-01-10T01:42:13;-1.30;99.90
13806;DHT22;6974;53.606;9.872;2024-01-10T01:44:41;-1.30;99.90
13806;DHT22;6974;53.606;9.872;2024-01-10T01:47:08;-1.30;99.90
13806;DHT22;6974;53.606;9.872;2024-01-10T01:49:35;-1.30;99.90
13806;DHT22;6974;53.606;9.872;2024-01-10T01:52:03;-1.30;99.90
13806;DHT22;6974;53.606;9.872;2024-01-10T01:54:33;-1.30;99.90
13806;DHT22;6974;53.606;9.872;2024-01-10T01:57:00;-1.30;99.90
13806;DHT22;6974;53.606;9.872;2024-01-10T01:59:27;-1.30;99.90
13806;DHT22;6974;53.606;9.872;2024-01-10T02:01:55;-1.30;99.90
13806;DHT22;6974;53.606;9.872;2024-01-10T02:04:22;-1.30;99.90
13806;DHT22;6974;53.606;9.872;2024-01-10T02:06:49;-1.30;99.90
13806;DHT22;6974;53.606;9.872;2024-01-10T02:09:16;-1.30;99.90
13806;DHT22;6974;53.606;9.872;2024-01-10T02:11:45;-1.30;99.90
13806;DHT22;6974;53.606;9.872;2024-01-10T02:14:12;-1.20;99.90
13806;DHT22;6974;53.606;9.872;2024-01-10T02:16:39;-1.30;99.90
13806;DHT22;6974;53.606;9.872;2024-01-10T02:19:18;-1.30;99.90
13806;DHT22;6974;53.606;9.872;2024-01-10T02:21:45;-1.30;99.90
13806;DHT22;6974;53.606;9.872;2024-01-10T02:24:12;-1.30;99.90
13806;DHT22;6974;53.606;9.872;2024-01-10T02:26:40;-1.30;99.90
13806;DHT22;6974;53.606;9.872;2024-01-10T02:29:07;-1.40;99.90
13806;DHT22;6974;53.606;9.872;2024-01-10T02:31:34;-1.40;99.90
13806;DHT22;6974;53.606;9.872;2024-01-10T02:34:01;-1.40;99.90
13806;DHT22;6974;53.606;9.872;2024-01-10T02:36:27;-1.40;99.90
13806;DHT22;6974;53.606;9.872;2024-01-10T02:38:54;-1.40;99.90
13806;DHT22;6974;53.606;9.872;2024-01-10T02:41:21;-1.40;99.90
13806;DHT22;6974;53.606;9.872;2024-01-10T02:43:49;-1.50;99.90
13806;DHT22;6974;53.606;9.872;2024-01-10T02:46:16;-1.50;99.90
13806;DHT22;6974;53.606;9.872;2024-01-10T02:48:44;-1.50;99.90
13806;DHT22;6974;53.606;9.872;2024-01-10T02:51:11;-1.50;99.90
13806;DHT22;6974;53.606;9.872;2024-01-10T02:53:37;-1.50;99.90
13806;DHT22;6974;53.606;9.872;2024-01-10T02:56:05;-1.50;99.90
13806;DHT22;6974;53.606;9.872;2024-01-10T02:58:32;-1.50;99.90
13806;DHT22;6974;53.606;9.872;2024-01-10T03:01:00;-1.50;99.90
13806;DHT22;6974;53.606;9.872;2024-01-10T03:03:27;-1.40;99.90
13806;DHT22;6974;53.606;9.872;2024-01-10T03:05:54;-1.40;99.90
13806;DHT22;6974;53.606;9.872;2024-01-10T03:08:21;-1.40;99.90
13806;DHT22;6974;53.606;9.872;2024-01-10T03:10:47;-1.40;99.90
13806;DHT22;6974;53.606;9.872;2024-01-10T03:13:14;-1.40;99.90
13806;DHT22;6974;53.606;9.872;2024-01-10T03:15:41;-1.40;99.90
13806;DHT22;6974;53.606;9.872;2024-01-10T03:18:09;-1.30;99.90
13806;DHT22;6974;53.606;9.872;2024-01-10T03:20:36;-1.30;99.90
13806;DHT22;6974;53.606;9.872;2024-01-10T03:23:03;-1.30;99.90
13806;DHT22;6974;53.606;9.872;2024-01-10T03:25:30;-1.30;99.90
13806;DHT22;6974;53.606;9.872;2024-01-10T03:27:57;-1.30;99.90
13806;DHT22;6974;53.606;9.872;2024-01-10T03:30:24;-1.30;99.90
13806;DHT22;6974;53.606;9.872;2024-01-10T03:32:51;-1.20;99.90
13806;DHT22;6974;53.606;9.872;2024-01-10T03:35:19;-1.20;99.90
13806;DHT22;6974;53.606;9.872;2024-01-10T03:37:45;-1.20;99.90
13806;DHT22;6974;53.606;9.872;2024-01-10T03:40:13;-1.10;99.90
13806;DHT22;6974;53.606;9.872;2024-01-10T03:42:39;-1.10;99.90
13806;DHT22;6974;53.606;9.872;2024-01-10T03:45:06;-1.10;99.90
13806;DHT22;6974;53.606;9.872;2024-01-10T03:47:33;-1.00;99.90
13806;DHT22;6974;53.606;9.872;2024-01-10T03:50:00;-1.00;99.90
13806;DHT22;6974;53.606;9.872;2024-01-10T03:52:29;-1.00;99.90
13806;DHT22;6974;53.606;9.872;2024-01-10T03:54:55;-1.00;99.90
13806;DHT22;6974;53.606;9.872;2024-01-10T03:57:23;-1.00;99.90
13806;DHT22;6974;53.606;9.872;2024-01-10T03:59:50;-1.00;99.90
13806;DHT22;6974;53.606;9.872;2024-01-10T04:02:16;-1.10;99.90
13806;DHT22;6974;53.606;9.872;2024-01-10T04:04:43;-1.00;99.90
13806;DHT22;6974;53.606;9.872;2024-01-10T04:07:10;-1.10;99.90
13806;DHT22;6974;53.606;9.872;2024-01-10T04:09:38;-1.10;99.90
13806;DHT22;6974;53.606;9.872;2024-01-10T04:12:05;-1.10;99.90
13806;DHT22;6974;53.606;9.872;2024-01-10T04:14:33;-1.00;99.90
13806;DHT22;6974;53.606;9.872;2024-01-10T04:17:00;-1.00;99.90
13806;DHT22;6974;53.606;9.872;2024-01-10T04:19:28;-1.00;99.90
13806;DHT22;6974;53.606;9.872;2024-01-10T04:21:55;-1.00;99.90
13806;DHT22;6974;53.606;9.872;2024-01-10T04:24:22;-1.00;99.90
13806;DHT22;6974;53.606;9.872;2024-01-10T04:26:50;-0.90;99.90
13806;DHT22;6974;53.606;9.872;2024-01-10T04:29:17;-0.90;99.90
13806;DHT22;6974;53.606;9.872;2024-01-10T04:31:44;-0.90;99.90
13806;DHT22;6974;53.606;9.872;2024-01-10T04:34:11;-0.80;99.90
13806;DHT22;6974;53.606;9.872;2024-01-10T04:39:07;-0.80;99.90
13806;DHT22;6974;53.606;9.872;2024-01-10T04:41:34;-0.80;99.90
13806;DHT22;6974;53.606;9.872;2024-01-10T04:44:03;-0.80;99.90
13806;DHT22;6974;53.606;9.872;2024-01-10T04:46:30;-0.80;99.90
13806;DHT22;6974;53.606;9.872;2024-01-10T04:48:57;-0.80;99.90
13806;DHT22;6974;53.606;9.872;2024-01-10T04:51:24;-0.70;99.90
13806;DHT22;6974;53.606;9.872;2024-01-10T04:53:51;-0.70;99.90
13806;DHT22;6974;53.606;9.872;2024-01-10T04:56:18;-0.70;99.90
13806;DHT22;6974;53.606;9.872;2024-01-10T04:58:46;-0.70;99.90
13806;DHT22;6974;53.606;9.872;2024-01-10T05:01:15;-0.70;99.90
13806;DHT22;6974;53.606;9.872;2024-01-10T05:03:42;-0.60;99.90
13806;DHT22;6974;53.606;9.872;2024-01-10T05:06:09;-0.60;99.90
13806;DHT22;6974;53.606;9.872;2024-01-10T05:08:36;-0.60;99.90
13806;DHT22;6974;53.606;9.872;2024-01-10T05:11:03;-0.60;99.90
13806;DHT22;6974;53.606;9.872;2024-01-10T05:13:30;-0.60;99.90
13806;DHT22;6974;53.606;9.872;2024-01-10T05:15:57;-0.60;99.90
13806;DHT22;6974;53.606;9.872;2024-01-10T05:18:26;-0.60;99.90
13806;DHT22;6974;53.606;9.872;2024-01-10T05:20:53;-0.60;99.90
13806;DHT22;6974;53.606;9.872;2024-01-10T05:23:20;-0.60;99.90
13806;DHT22;6974;53.606;9.872;2024-01-10T05:25:47;-0.60;99.90
13806;DHT22;6974;53.606;9.872;2024-01-10T05:28:14;-0.60;99.90
13806;DHT22;6974;53.606;9.872;2024-01-10T05:30:41;-0.60;99.90
13806;DHT22;6974;53.606;9.872;2024-01-10T05:33:08;-0.60;99.90
13806;DHT22;6974;53.606;9.872;2024-01-10T05:35:38;-0.70;99.90
13806;DHT22;6974;53.606;9.872;2024-01-10T05:38:05;-0.60;99.90
13806;DHT22;6974;53.606;9.872;2024-01-10T05:40:32;-0.60;99.90
13806;DHT22;6974;53.606;9.872;2024-01-10T05:42:59;-0.60;99.90
13806;DHT22;6974;53.606;9.872;2024-01-10T05:45:26;-0.70;99.90
13806;DHT22;6974;53.606;9.872;2024-01-10T05:47:54;-0.70;99.90
13806;DHT22;6974;53.606;9.872;2024-01-10T05:50:22;-0.70;99.90
13806;DHT22;6974;53.606;9.872;2024-01-10T05:52:50;-0.70;99.90
13806;DHT22;6974;53.606;9.872;2024-01-10T05:55:18;-0.70;99.90
13806;DHT22;6974;53.606;9.872;2024-01-10T05:57:45;-0.70;99.90
13806;DHT22;6974;53.606;9.872;2024-01-10T06:00:13;-0.70;99.90
13806;DHT22;6974;53.606;9.872;2024-01-10T06:02:42;-0.60;99.90
13806;DHT22;6974;53.606;9.872;2024-01-10T06:05:10;-0.60;99.90
13806;DHT22;6974;53.606;9.872;2024-01-10T06:07:37;-0.60;99.90
13806;DHT22;6974;53.606;9.872;2024-01-10T06:10:07;-0.70;99.90
13806;DHT22;6974;53.606;9.872;2024-01-10T06:12:35;-0.70;99.90
13806;DHT22;6974;53.606;9.872;2024-01-10T06:15:05;-0.70;99.90
13806;DHT22;6974;53.606;9.872;2024-01-10T06:17:32;-0.70;99.90
13806;DHT22;6974;53.606;9.872;2024-01-10T06:19:59;-0.70;99.90
13806;DHT22;6974;53.606;9.872;2024-01-10T06:22:26;-0.70;99.90
13806;DHT22;6974;53.606;9.872;2024-01-10T06:24:54;-0.80;99.90
13806;DHT22;6974;53.606;9.872;2024-01-10T06:27:22;-0.70;99.90
13806;DHT22;6974;53.606;9.872;2024-01-10T06:29:49;-0.70;99.90
13806;DHT22;6974;53.606;9.872;2024-01-10T06:32:16;-0.70;99.90
13806;DHT22;6974;53.606;9.872;2024-01-10T06:34:43;-0.80;99.90
13806;DHT22;6974;53.606;9.872;2024-01-10T06:37:10;-0.80;99.90
13806;DHT22;6974;53.606;9.872;2024-01-10T06:39:37;-0.80;99.90
13806;DHT22;6974;53.606;9.872;2024-01-10T06:42:05;-0.80;99.90
13806;DHT22;6974;53.606;9.872;2024-01-10T06:44:35;-0.80;99.90
13806;DHT22;6974;53.606;9.872;2024-01-10T06:47:03;-0.80;99.90
13806;DHT22;6974;53.606;9.872;2024-01-10T06:49:30;-0.80;99.90
13806;DHT22;6974;53.606;9.872;2024-01-10T06:51:57;-0.80;99.90
13806;DHT22;6974;53.606;9.872;2024-01-10T06:54:25;-0.80;99.90
13806;DHT22;6974;53.606;9.872;2024-01-10T06:56:52;-0.80;99.90
13806;DHT22;6974;53.606;9.872;2024-01-10T06:59:20;-0.80;99.90
13806;DHT22;6974;53.606;9.872;2024-01-10T07:01:52;-0.70;99.90
13806;DHT22;6974;53.606;9.872;2024-01-10T07:04:21;-0.70;99.90
13806;DHT22;6974;53.606;9.872;2024-01-10T07:06:49;-0.70;99.90
13806;DHT22;6974;53.606;9.872;2024-01-10T07:09:16;-0.70;99.90
13806;DHT22;6974;53.606;9.872;2024-01-10T07:11:45;-0.60;99.90
13806;DHT22;6974;53.606;9.872;2024-01-10T07:14:13;-0.60;99.90
13806;DHT22;6974;53.606;9.872;2024-01-10T07:16:40;-0.60;99.90
13806;DHT22;6974;53.606;9.872;2024-01-10T07:19:09;-0.70;99.90
13806;DHT22;6974;53.606;9.872;2024-01-10T07:21:39;-0.60;99.90
13806;DHT22;6974;53.606;9.872;2024-01-10T07:24:07;-0.50;99.90
13806;DHT22;6974;53.606;9.872;2024-01-10T07:26:35;-0.50;99.90
13806;DHT22;6974;53.606;9.872;2024-01-10T07:29:03;-0.50;99.90
13806;DHT22;6974;53.606;9.872;2024-01-10T07:31:30;-0.40;99.90
13806;DHT22;6974;53.606;9.872;2024-01-10T07:33:57;-0.50;99.90
13806;DHT22;6974;53.606;9.872;2024-01-10T07:36:27;-0.50;99.90
13806;DHT22;6974;53.606;9.872;2024-01-10T07:38:56;-0.40;99.90
13806;DHT22;6974;53.606;9.872;2024-01-10T07:41:24;-0.40;99.90
13806;DHT22;6974;53.606;9.872;2024-01-10T07:43:50;-0.40;99.90
13806;DHT22;6974;53.606;9.872;2024-01-10T07:46:17;-0.40;99.90
13806;DHT22;6974;53.606;9.872;2024-01-10T07:48:45;-0.40;99.90
13806;DHT22;6974;53.606;9.872;2024-01-10T07:51:13;-0.40;99.90
13806;DHT22;6974;53.606;9.872;2024-01-10T07:53:41;-0.40;99.90
13806;DHT22;6974;53.606;9.872;2024-01-10T07:56:08;-0.30;99.90
13806;DHT22;6974;53.606;9.872;2024-01-10T07:58:35;-0.30;99.90
13806;DHT22;6974;53.606;9.872;2024-01-10T08:01:02;-0.30;99.90
13806;DHT22;6974;53.606;9.872;2024-01-10T08:03:30;-0.30;99.90
13806;DHT22;6974;53.606;9.872;2024-01-10T08:05:57;-0.40;99.90
13806;DHT22;6974;53.606;9.872;2024-01-10T08:08:24;-0.30;99.90
13806;DHT22;6974;53.606;9.872;2024-01-10T08:10:53;-0.40;99.90
13806;DHT22;6974;53.606;9.872;2024-01-10T08:13:20;-0.40;99.90
13806;DHT22;6974;53.606;9.872;2024-01-10T08:15:47;-0.50;99.90
13806;DHT22;6974;53.606;9.872;2024-01-10T08:18:14;-0.40;99.90
13806;DHT22;6974;53.606;9.872;2024-01-10T08:20:44;-0.40;99.90
13806;DHT22;6974;53.606;9.872;2024-01-10T08:23:11;-0.40;99.90
13806;DHT22;6974;53.606;9.872;2024-01-10T08:25:39;-0.40;99.90
13806;DHT22;6974;53.606;9.872;2024-01-10T08:28:07;-0.40;99.90
13806;DHT22;6974;53.606;9.872;2024-01-10T08:30:35;-0.40;99.90
13806;DHT22;6974;53.606;9.872;2024-01-10T08:33:03;-0.40;99.90
13806;DHT22;6974;53.606;9.872;2024-01-10T08:35:31;-0.40;99.90
13806;DHT22;6974;53.606;9.872;2024-01-10T08:37:58;-0.40;99.90
13806;DHT22;6974;53.606;9.872;2024-01-10T08:40:25;-0.40;99.90
13806;DHT22;6974;53.606;9.872;2024-01-10T08:42:53;-0.50;99.90
13806;DHT22;6974;53.606;9.872;2024-01-10T08:45:24;-0.50;99.90
13806;DHT22;6974;53.606;9.872;2024-01-10T08:47:52;-0.40;99.90
13806;DHT22;6974;53.606;9.872;2024-01-10T08:50:21;-0.40;99.90
13806;DHT22;6974;53.606;9.872;2024-01-10T08:52:47;-0.40;99.90
13806;DHT22;6974;53.606;9.872;2024-01-10T08:55:15;-0.40;99.90
13806;DHT22;6974;53.606;9.872;2024-01-10T08:57:42;-0.30;99.90
13806;DHT22;6974;53.606;9.872;2024-01-10T09:00:09;-0.20;99.90
13806;DHT22;6974;53.606;9.872;2024-01-10T09:02:39;-0.20;99.90
13806;DHT22;6974;53.606;9.872;2024-01-10T09:05:07;-0.30;99.90
13806;DHT22;6974;53.606;9.872;2024-01-10T09:07:36;-0.30;99.90
13806;DHT22;6974;53.606;9.872;2024-01-10T09:10:04;-0.20;99.90
13806;DHT22;6974;53.606;9.872;2024-01-10T09:12:33;-0.20;99.90
13806;DHT22;6974;53.606;9.872;2024-01-10T09:15:00;-0.30;99.90
13806;DHT22;6974;53.606;9.872;2024-01-10T09:17:28;-0.30;99.90
13806;DHT22;6974;53.606;9.872;2024-01-10T09:19:57;-0.20;99.90
13806;DHT22;6974;53.606;9.872;2024-01-10T09:22:24;-0.20;99.90
13806;DHT22;6974;53.606;9.872;2024-01-10T09:24:51;-0.10;99.90
13806;DHT22;6974;53.606;9.872;2024-01-10T09:27:19;-0.10;99.90
13806;DHT22;6974;53.606;9.872;2024-01-10T09:29:48;-0.10;99.90
13806;DHT22;6974;53.606;9.872;2024-01-10T09:32:15;-0.10;99.90
13806;DHT22;6974;53.606;9.872;2024-01-10T09:34:42;0.00;99.90
13806;DHT22;6974;53.606;9.872;2024-01-10T09:37:10;0.00;99.90
13806;DHT22;6974;53.606;9.872;2024-01-10T09:39:37;-0.10;99.90
13806;DHT22;6974;53.606;9.872;2024-01-10T09:42:05;0.00;99.90
13806;DHT22;6974;53.606;9.872;2024-01-10T09:44:32;0.00;99.90
13806;DHT22;6974;53.606;9.872;2024-01-10T09:47:02;0.00;99.90
13806;DHT22;6974;53.606;9.872;2024-01-10T09:49:30;0.00;99.90
13806;DHT22;6974;53.606;9.872;2024-01-10T09:51:59;0.00;99.90
13806;DHT22;6974;53.606;9.872;2024-01-10T09:54:32;0.10;99.90
13806;DHT22;6974;53.606;9.872;2024-01-10T09:57:01;0.10;99.90
13806;DHT22;6974;53.606;9.872;2024-01-10T09:59:29;0.10;99.90
13806;DHT22;6974;53.606;9.872;2024-01-10T10:01:58;0.10;99.90
13806;DHT22;6974;53.606;9.872;2024-01-10T10:04:27;0.00;99.90
13806;DHT22;6974;53.606;9.872;2024-01-10T10:06:58;0.00;99.90
13806;DHT22;6974;53.606;9.872;2024-01-10T10:09:26;-0.10;99.90
13806;DHT22;6974;53.606;9.872;2024-01-10T10:11:56;-0.20;99.90
13806;DHT22;6974;53.606;9.872;2024-01-10T10:14:24;-0.20;99.90
13806;DHT22;6974;53.606;9.872;2024-01-10T10:16:54;-0.20;99.90
13806;DHT22;6974;53.606;9.872;2024-01-10T10:19:25;-0.20;99.90
13806;DHT22;6974;53.606;9.872;2024-01-10T10:21:52;-0.10;99.90
13806;DHT22;6974;53.606;9.872;2024-01-10T10:24:18;0.00;99.90
13806;DHT22;6974;53.606;9.872;2024-01-10T10:26:46;0.10;99.90
13806;DHT22;6974;53.606;9.872;2024-01-10T10:29:19;0.20;99.90
13806;DHT22;6974;53.606;9.872;2024-01-10T10:31:47;0.10;99.90
13806;DHT22;6974;53.606;9.872;2024-01-10T10:34:20;0.10;99.90
13806;DHT22;6974;53.606;9.872;2024-01-10T10:36:48;0.10;99.90
13806;DHT22;6974;53.606;9.872;2024-01-10T10:39:16;0.00;99.90
13806;DHT22;6974;53.606;9.872;2024-01-10T10:41:43;0.10;99.90
13806;DHT22;6974;53.606;9.872;2024-01-10T10:44:14;0.10;99.90
13806;DHT22;6974;53.606;9.872;2024-01-10T10:46:49;0.10;99.90
13806;DHT22;6974;53.606;9.872;2024-01-10T10:49:17;0.10;99.90
13806;DHT22;6974;53.606;9.872;2024-01-10T10:51:47;0.10;99.90
13806;DHT22;6974;53.606;9.872;2024-01-10T10:54:15;0.10;99.90
13806;DHT22;6974;53.606;9.872;2024-01-10T10:56:43;0.20;99.90
13806;DHT22;6974;53.606;9.872;2024-01-10T10:59:12;0.20;99.90
13806;DHT22;6974;53.606;9.872;2024-01-10T11:01:42;0.30;99.90
13806;DHT22;6974;53.606;9.872;2024-01-10T11:04:12;0.30;99.90
13806;DHT22;6974;53.606;9.872;2024-01-10T11:06:40;0.30;99.90
13806;DHT22;6974;53.606;9.872;2024-01-10T11:09:09;0.30;99.90
13806;DHT22;6974;53.606;9.872;2024-01-10T11:14:38;0.50;99.90
13806;DHT22;6974;53.606;9.872;2024-01-10T11:17:41;0.50;99.90
13806;DHT22;6974;53.606;9.872;2024-01-10T11:20:26;0.50;99.90
13806;DHT22;6974;53.606;9.872;2024-01-10T11:23:37;0.40;99.90
13806;DHT22;6974;53.606;9.872;2024-01-10T11:26:06;0.30;99.90
13806;DHT22;6974;53.606;9.872;2024-01-10T11:28:33;0.30;99.90
13806;DHT22;6974;53.606;9.872;2024-01-10T11:31:03;0.30;99.90
13806;DHT22;6974;53.606;9.872;2024-01-10T11:33:33;0.30;99.90
13806;DHT22;6974;53.606;9.872;2024-01-10T11:36:09;0.30;99.90
13806;DHT22;6974;53.606;9.872;2024-01-10T11:38:42;0.20;99.90
13806;DHT22;6974;53.606;9.872;2024-01-10T11:41:10;0.10;99.90
13806;DHT22;6974;53.606;9.872;2024-01-10T11:43:39;0.10;99.90
13806;DHT22;6974;53.606;9.872;2024-01-10T11:46:06;0.10;99.90
13806;DHT22;6974;53.606;9.872;2024-01-10T11:48:37;0.20;99.90
13806;DHT22;6974;53.606;9.872;2024-01-10T11:51:05;0.20;99.90
13806;DHT22;6974;53.606;9.872;2024-01-10T11:53:41;0.20;99.90
13806;DHT22;6974;53.606;9.872;2024-01-10T11:56:12;0.20;99.90
13806;DHT22;6974;53.606;9.872;2024-01-10T11:58:55;0.30;99.90
13806;DHT22;6974;53.606;9.872;2024-01-10T12:01:27;0.30;99.90
13806;DHT22;6974;53.606;9.872;2024-01-10T12:03:56;0.30;99.90
13806;DHT22;6974;53.606;9.872;2024-01-10T12:06:26;0.30;99.90
13806;DHT22;6974;53.606;9.872;2024-01-10T12:08:54;0.40;99.90
13806;DHT22;6974;53.606;9.872;2024-01-10T12:11:21;0.30;99.90
13806;DHT22;6974;53.606;9.872;2024-01-10T12:13:48;0.40;99.90
13806;DHT22;6974;53.606;9.872;2024-01-10T12:16:15;0.50;99.90
13806;DHT22;6974;53.606;9.872;2024-01-10T12:18:43;0.60;99.90
13806;DHT22;6974;53.606;9.872;2024-01-10T12:21:10;0.60;99.90
13806;DHT22;6974;53.606;9.872;2024-01-10T12:23:38;0.60;99.90
13806;DHT22;6974;53.606;9.872;2024-01-10T12:26:10;0.60;99.90
13806;DHT22;6974;53.606;9.872;2024-01-10T12:28:38;0.60;99.90
13806;DHT22;6974;53.606;9.872;2024-01-10T12:31:06;0.60;99.90
13806;DHT22;6974;53.606;9.872;2024-01-10T12:33:34;0.60;99.90
13806;DHT22;6974;53.606;9.872;2024-01-10T12:36:07;0.50;99.90
13806;DHT22;6974;53.606;9.872;2024-01-10T12:38:34;0.40;99.90
13806;DHT22;6974;53.606;9.872;2024-01-10T12:41:03;0.40;99.90
13806;DHT22;6974;53.606;9.872;2024-01-10T12:43:32;0.40;99.90
13806;DHT22;6974;53.606;9.872;2024-01-10T12:46:03;0.40;99.90
13806;DHT22;6974;53.606;9.872;2024-01-10T12:48:31;0.30;99.90
13806;DHT22;6974;53.606;9.872;2024-01-10T12:50:59;0.30;99.90
13806;DHT22;6974;53.606;9.872;2024-01-10T12:53:28;0.30;99.90
13806;DHT22;6974;53.606;9.872;2024-01-10T12:55:55;0.30;99.90
13806;DHT22;6974;53.606;9.872;2024-01-10T12:58:21;0.30;99.90
13806;DHT22;6974;53.606;9.872;2024-01-10T13:00:50;0.30;99.90
13806;DHT22;6974;53.606;9.872;2024-01-10T13:03:18;0.40;99.90
13806;DHT22;6974;53.606;9.872;2024-01-10T13:05:45;0.50;99.90
13806;DHT22;6974;53.606;9.872;2024-01-10T13:08:13;0.60;99.90
13806;DHT22;6974;53.606;9.872;2024-01-10T13:10:41;0.60;99.90
13806;DHT22;6974;53.606;9.872;2024-01-10T13:13:09;0.60;99.90
13806;DHT22;6974;53.606;9.872;2024-01-10T13:15:36;0.60;99.90
13806;DHT22;6974;53.606;9.872;2024-01-10T13:18:05;0.70;99.90
13806;DHT22;6974;53.606;9.872;2024-01-10T13:20:32;0.60;99.90
13806;DHT22;6974;53.606;9.872;2024-01-10T13:22:59;0.60;99.90
13806;DHT22;6974;53.606;9.872;2024-01-10T13:25:27;0.50;99.90
13806;DHT22;6974;53.606;9.872;2024-01-10T13:27:56;0.50;99.90
13806;DHT22;6974;53.606;9.872;2024-01-10T13:30:23;0.50;99.90
13806;DHT22;6974;53.606;9.872;2024-01-10T13:32:50;0.50;99.90
13806;DHT22;6974;53.606;9.872;2024-01-10T13:35:19;0.50;99.90
13806;DHT22;6974;53.606;9.872;2024-01-10T13:37:48;0.50;99.90
13806;DHT22;6974;53.606;9.872;2024-01-10T13:40:15;0.60;99.90
13806;DHT22;6974;53.606;9.872;2024-01-10T13:42:43;0.60;99.90
13806;DHT22;6974;53.606;9.872;2024-01-10T13:45:11;0.60;99.90
13806;DHT22;6974;53.606;9.872;2024-01-10T13:47:39;0.60;99.90
13806;DHT22;6974;53.606;9.872;2024-01-10T13:50:07;0.60;99.90
13806;DHT22;6974;53.606;9.872;2024-01-10T13:52:37;0.60;99.90
13806;DHT22;6974;53.606;9.872;2024-01-10T13:55:04;0.60;99.90
13806;DHT22;6974;53.606;9.872;2024-01-10T13:57:35;0.60;99.90
13806;DHT22;6974;53.606;9.872;2024-01-10T14:00:03;0.50;99.90
13806;DHT22;6974;53.606;9.872;2024-01-10T14:02:35;0.60;99.90
13806;DHT22;6974;53.606;9.872;2024-01-10T14:05:03;0.60;99.90
13806;DHT22;6974;53.606;9.872;2024-01-10T14:07:32;0.50;99.90
13806;DHT22;6974;53.606;9.872;2024-01-10T14:10:01;0.50;99.90
13806;DHT22;6974;53.606;9.872;2024-01-10T14:12:29;0.50;99.90
13806;DHT22;6974;53.606;9.872;2024-01-10T14:14:55;0.60;99.90
13806;DHT22;6974;53.606;9.872;2024-01-10T14:17:25;0.50;99.90
13806;DHT22;6974;53.606;9.872;2024-01-10T14:19:52;0.50;99.90
13806;DHT22;6974;53.606;9.872;2024-01-10T14:22:19;0.50;99.90
13806;DHT22;6974;53.606;9.872;2024-01-10T14:24:46;0.50;99.90
13806;DHT22;6974;53.606;9.872;2024-01-10T14:27:15;0.40;99.90
13806;DHT22;6974;53.606;9.872;2024-01-10T14:29:42;0.50;99.90
13806;DHT22;6974;53.606;9.872;2024-01-10T14:32:09;0.40;99.90
13806;DHT22;6974;53.606;9.872;2024-01-10T14:34:38;0.40;99.90
13806;DHT22;6974;53.606;9.872;2024-01-10T14:37:06;0.40;99.90
13806;DHT22;6974;53.606;9.872;2024-01-10T14:39:33;0.40;99.90
13806;DHT22;6974;53.606;9.872;2024-01-10T14:42:00;0.30;99.90
13806;DHT22;6974;53.606;9.872;2024-01-10T14:44:29;0.30;99.90
13806;DHT22;6974;53.606;9.872;2024-01-10T14:46:56;0.30;99.90
13806;DHT22;6974;53.606;9.872;2024-01-10T14:49:23;0.30;99.90
13806;DHT22;6974;53.606;9.872;2024-01-10T14:51:50;0.30;99.90
13806;DHT22;6974;53.606;9.872;2024-01-10T14:54:17;0.30;99.90
13806;DHT22;6974;53.606;9.872;2024-01-10T14:56:46;0.20;99.90
13806;DHT22;6974;53.606;9.872;2024-01-10T14:59:14;0.20;99.90
13806;DHT22;6974;53.606;9.872;2024-01-10T15:01:45;0.20;99.90
13806;DHT22;6974;53.606;9.872;2024-01-10T15:04:13;0.20;99.90
13806;DHT22;6974;53.606;9.872;2024-01-10T15:06:44;0.20;99.90
13806;DHT22;6974;53.606;9.872;2024-01-10T15:09:12;0.20;99.90
13806;DHT22;6974;53.606;9.872;2024-01-10T15:11:40;0.20;99.90
13806;DHT22;6974;53.606;9.872;2024-01-10T15:14:07;0.20;99.90
13806;DHT22;6974;53.606;9.872;2024-01-10T15:16:36;0.20;99.90
13806;DHT22;6974;53.606;9.872;2024-01-10T15:19:05;0.20;99.90
13806;DHT22;6974;53.606;9.872;2024-01-10T15:21:32;0.20;99.90
13806;DHT22;6974;53.606;9.872;2024-01-10T15:23:59;0.20;99.90
13806;DHT22;6974;53.606;9.872;2024-01-10T15:26:26;0.10;99.90
13806;DHT22;6974;53.606;9.872;2024-01-10T15:28:53;0.10;99.90
13806;DHT22;6974;53.606;9.872;2024-01-10T15:31:21;0.10;99.90
13806;DHT22;6974;53.606;9.872;2024-01-10T15:33:49;0.10;99.90
13806;DHT22;6974;53.606;9.872;2024-01-10T15:36:17;0.10;99.90
13806;DHT22;6974;53.606;9.872;2024-01-10T15:38:44;0.10;99.90
13806;DHT22;6974;53.606;9.872;2024-01-10T15:41:11;0.10;99.90
13806;DHT22;6974;53.606;9.872;2024-01-10T15:43:39;0.00;99.90
13806;DHT22;6974;53.606;9.872;2024-01-10T15:46:06;0.00;99.90
13806;DHT22;6974;53.606;9.872;2024-01-10T15:48:34;0.00;99.90
13806;DHT22;6974;53.606;9.872;2024-01-10T15:51:01;0.00;99.90
13806;DHT22;6974;53.606;9.872;2024-01-10T15:53:29;0.10;99.90
13806;DHT22;6974;53.606;9.872;2024-01-10T15:55:57;0.10;99.90
13806;DHT22;6974;53.606;9.872;2024-01-10T15:58:25;0.00;99.90
13806;DHT22;6974;53.606;9.872;2024-01-10T16:00:52;0.10;99.90
13806;DHT22;6974;53.606;9.872;2024-01-10T16:03:19;0.00;99.90